Saga — 9HA2591 — position and weather

sailwx.info

Track history (hours):
 
Tides and Currents Weather Stations Pressure Air Temp Water Temp Dewpoint Dewpoint Depression Visibility Wind Speed Wind Dir Waves Ship Positions

Saga

Last reported at 2017-Dec-16 08:35 UTC. Time now 2017-Dec-18 20:07 UTC.
Position N 37°58' E 024°38'.

Length 249 m; draft 8.5 m.

Type: Tanker. MMSI: 248964000.

Date/timePositionNaut miles runAvg speedWind from/ knotsBaromVisibWave heightAir tempDewpointWater temp
2017-Dec-16 08:35N 37°58' E 024°38'1 8.8
2017-Dec-16 08:30N 37°58' E 024°38'4 8.8
2017-Dec-16 08:00N 37°54' E 024°36'5 8.8
2017-Dec-16 07:29N 37°51' E 024°31'4 8.9
2017-Dec-16 07:00N 37°48' E 024°27'5 9.1
2017-Dec-16 06:30N 37°45' E 024°22'5 8.9
2017-Dec-16 05:58N 37°42' E 024°18'5 8.5
2017-Dec-16 05:25N 37°39' E 024°13'4 8.8
2017-Dec-16 05:00N 37°36' E 024°11'4 8.9
2017-Dec-16 04:30N 37°32' E 024°08'5 9.2
2017-Dec-16 04:00N 37°28' E 024°06'5 9.0
2017-Dec-16 03:30N 37°24' E 024°04'5 9.0
2017-Dec-16 02:58N 37°19' E 024°01'4 8.9
2017-Dec-16 02:30N 37°16' E 023°59'4 8.9
2017-Dec-16 02:00N 37°12' E 023°57'4 8.8
2017-Dec-16 01:30N 37°08' E 023°54'4 8.9
2017-Dec-16 01:00N 37°03' E 023°52'4 8.8
2017-Dec-16 00:30N 36°60' E 023°50'5 9.2
2017-Dec-16 00:00N 36°56' E 023°47'5 8.9
2017-Dec-15 23:29N 36°51' E 023°44'7 8.7
2017-Dec-15 22:41N 36°45' E 023°40'2 8.8
2017-Dec-15 22:30N 36°44' E 023°39'5 8.9
2017-Dec-15 21:55N 36°40' E 023°36'  
2017-Dec-13 05:41N 36°13' E 023°18'0 1.8
2017-Dec-13 05:30N 36°13' E 023°17'1 1.7
2017-Dec-13 04:38N 36°14' E 023°16'0 1.4
2017-Dec-13 04:30N 36°14' E 023°16'1 1.4
2017-Dec-13 04:00N 36°14' E 023°16'2 3.7
2017-Dec-13 03:30N 36°12' E 023°17'1 1.8
2017-Dec-13 03:00N 36°13' E 023°17'1 1.6
2017-Dec-13 02:30N 36°13' E 023°16'1 1.7
2017-Dec-13 01:59N 36°14' E 023°16'1 1.8
2017-Dec-13 01:31N 36°15' E 023°16'2 3.2
2017-Dec-13 00:56N 36°17' E 023°16'3 0.3
2017-Dec-12 15:21N 36°19' E 023°13'0 1.4
2017-Dec-12 15:01N 36°19' E 023°13'1 2.0
2017-Dec-12 14:30N 36°19' E 023°11'2 4.8
2017-Dec-12 14:00N 36°19' E 023°08'4 7.0
2017-Dec-12 13:24N 36°19' E 023°03'0 0.2
2017-Dec-12 12:52N 36°19' E 023°03'0 0.0
2017-Dec-12 09:25N 36°19' E 023°03'0 0.0
2017-Dec-12 08:58N 36°19' E 023°03'0 0.1
2017-Dec-12 06:55N 36°19' E 023°03'  
Track history (hours):
 
Tides and Currents Weather Stations Pressure Air Temp Water Temp Dewpoint Dewpoint Depression Visibility Wind Speed Wind Dir Waves Ship Positions

Saga

Last reported at 2017-Dec-16 08:35 UTC. Time now 2017-Dec-18 20:07 UTC.
Position N 37°58' E 024°38'.

Length 249 m; draft 8.5 m.

Type: Tanker. MMSI: 248964000.

Date/timePositionNaut miles runAvg speedWind from/ knotsBaromVisibWave heightAir tempDewpointWater temp
2017-Dec-16 08:35N 37°58' E 024°38'1 8.8
2017-Dec-16 08:30N 37°58' E 024°38'4 8.8
2017-Dec-16 08:00N 37°54' E 024°36'5 8.8
2017-Dec-16 07:29N 37°51' E 024°31'4 8.9
2017-Dec-16 07:00N 37°48' E 024°27'5 9.1
2017-Dec-16 06:30N 37°45' E 024°22'5 8.9
2017-Dec-16 05:58N 37°42' E 024°18'5 8.5
2017-Dec-16 05:25N 37°39' E 024°13'4 8.8
2017-Dec-16 05:00N 37°36' E 024°11'4 8.9
2017-Dec-16 04:30N 37°32' E 024°08'5 9.2
2017-Dec-16 04:00N 37°28' E 024°06'5 9.0
2017-Dec-16 03:30N 37°24' E 024°04'5 9.0
2017-Dec-16 02:58N 37°19' E 024°01'4 8.9
2017-Dec-16 02:30N 37°16' E 023°59'4 8.9
2017-Dec-16 02:00N 37°12' E 023°57'4 8.8
2017-Dec-16 01:30N 37°08' E 023°54'4 8.9
2017-Dec-16 01:00N 37°03' E 023°52'4 8.8
2017-Dec-16 00:30N 36°60' E 023°50'5 9.2
2017-Dec-16 00:00N 36°56' E 023°47'5 8.9
2017-Dec-15 23:29N 36°51' E 023°44'7 8.7
2017-Dec-15 22:41N 36°45' E 023°40'2 8.8
2017-Dec-15 22:30N 36°44' E 023°39'5 8.9
2017-Dec-15 21:55N 36°40' E 023°36'  
2017-Dec-13 05:41N 36°13' E 023°18'0 1.8
2017-Dec-13 05:30N 36°13' E 023°17'1 1.7
2017-Dec-13 04:38N 36°14' E 023°16'0 1.4
2017-Dec-13 04:30N 36°14' E 023°16'1 1.4
2017-Dec-13 04:00N 36°14' E 023°16'2 3.7
2017-Dec-13 03:30N 36°12' E 023°17'1 1.8
2017-Dec-13 03:00N 36°13' E 023°17'1 1.6
2017-Dec-13 02:30N 36°13' E 023°16'1 1.7
2017-Dec-13 01:59N 36°14' E 023°16'1 1.8
2017-Dec-13 01:31N 36°15' E 023°16'2 3.2
2017-Dec-13 00:56N 36°17' E 023°16'3 0.3
2017-Dec-12 15:21N 36°19' E 023°13'0 1.4
2017-Dec-12 15:01N 36°19' E 023°13'1 2.0
2017-Dec-12 14:30N 36°19' E 023°11'2 4.8
2017-Dec-12 14:00N 36°19' E 023°08'4 7.0
2017-Dec-12 13:24N 36°19' E 023°03'0 0.2
2017-Dec-12 12:52N 36°19' E 023°03'0 0.0
2017-Dec-12 09:25N 36°19' E 023°03'0 0.0
2017-Dec-12 08:58N 36°19' E 023°03'0 0.1
2017-Dec-12 06:55N 36°19' E 023°03'  

Dump ship's entire track history